Time;durP1;ratioP1;P1;durP2;ratioP2;P2;SDS_P1;SDS_P2;PMS_P1;PMS_P2;Temp;Humidity;BMP_temperature;BMP_pressure;BME280_temperature;BME280_humidity;BME280_pressure;Samples;Min_cycle;Max_cycle;Signal;HPM_P1;HPM_P2
2023/06/12 07:46:41;;;;;;;5.53;1.55;;;26.00;99.90;;;;;;12253186;22;15129851;31
2023/06/12 07:52:03;;;;;;;4.43;1.50;;;26.30;99.90;;;;;;12538197;23;20375;-83
2023/06/12 07:57:28;;;;;;;2.00;1.60;;;26.50;99.90;;;;;;12543692;23;20182;-91
2023/06/12 08:03:00;;;;;;;4.45;1.70;;;26.70;99.90;;;;;;12518785;23;20474;-84
2023/06/12 08:08:45;;;;;;;3.17;1.50;;;27.20;99.90;;;;;;12500585;23;20391;-81
2023/06/12 08:14:06;;;;;;;3.38;2.30;;;27.40;99.90;;;;;;12540782;23;20267;-84
2023/06/12 08:19:29;;;;;;;6.20;1.83;;;27.40;99.90;;;;;;12599789;23;20558;-84
2023/06/12 08:24:51;;;;;;;7.85;1.80;;;27.60;99.90;;;;;;12539140;23;20225;-82
2023/06/12 08:30:13;;;;;;;6.28;2.00;;;27.70;99.90;;;;;;12494830;23;20171;-84
2023/06/12 08:35:35;;;;;;;3.28;1.70;;;27.50;99.90;;;;;;12523281;23;20221;-84
2023/06/12 08:41:00;;;;;;;5.70;1.80;;;27.60;99.90;;;;;;12523311;23;20346;-84
2023/06/12 08:46:22;;;;;;;5.80;2.15;;;27.60;99.90;;;;;;12497623;23;20190;-83
2023/06/12 08:51:43;;;;;;;4.40;1.38;;;27.90;99.90;;;;;;12499001;23;20416;-82
2023/06/12 08:57:07;;;;;;;5.63;2.88;;;27.90;99.90;;;;;;12517242;23;20508;-82
2023/06/12 09:02:29;;;;;;;5.63;2.92;;;28.50;99.90;;;;;;12506581;23;20207;-84
2023/06/12 09:07:53;;;;;;;6.15;2.10;;;28.70;99.90;;;;;;12521406;23;20175;-85
2023/06/12 09:13:14;;;;;;;3.47;1.35;;;28.80;99.90;;;;;;12544821;23;20195;-82
2023/06/12 09:18:53;;;;;;;3.42;1.40;;;28.80;99.90;;;;;;12544218;23;20187;-82
2023/06/12 09:24:17;;;;;;;2.17;1.50;;;29.00;99.90;;;;;;12521777;23;20172;-84
2023/06/12 09:29:39;;;;;;;5.93;1.73;;;29.30;99.90;;;;;;12545851;23;20406;-82
2023/06/12 09:35:01;;;;;;;2.97;1.67;;;29.60;99.90;;;;;;12545939;23;20199;-86
2023/06/12 09:40:23;;;;;;;7.93;1.73;;;29.50;99.90;;;;;;12474076;23;20572;-83
2023/06/12 09:45:50;;;;;;;3.55;1.20;;;29.40;99.90;;;;;;12485225;23;20184;-85
2023/06/12 09:51:12;;;;;;;2.25;1.40;;;29.30;99.90;;;;;;12465993;23;20238;-84
2023/06/12 09:56:34;;;;;;;5.55;1.27;;;29.60;99.90;;;;;;12465022;23;20528;-83
2023/06/12 10:02:04;;;;;;;3.63;1.60;;;29.50;99.90;;;;;;12466494;23;20168;-82
2023/06/12 10:07:33;;;;;;;5.97;1.95;;;29.60;99.90;;;;;;12505582;23;20275;-82
2023/06/12 10:12:55;;;;;;;5.38;1.90;;;29.90;99.90;;;;;;12465216;23;20199;-83
2023/06/12 10:18:17;;;;;;;8.93;2.25;;;29.90;99.90;;;;;;12505985;23;20399;-83
2023/06/12 10:23:41;;;;;;;3.58;2.30;;;30.10;99.90;;;;;;12504409;23;20172;-84
2023/06/12 10:29:27;;;;;;;9.48;2.33;;;30.30;99.90;;;;;;12482761;23;20214;-83
2023/06/12 10:34:54;;;;;;;10.05;4.20;;;30.40;99.90;;;;;;12484131;23;20199;-83
2023/06/12 10:40:20;;;;;;;3.70;2.10;;;30.40;98.90;;;;;;12483402;23;20239;-82
2023/06/12 10:45:55;;;;;;;2.92;1.38;;;30.50;99.90;;;;;;12484346;23;20184;-83
2023/06/12 10:51:32;;;;;;;9.57;2.15;;;30.60;98.90;;;;;;12504015;23;20242;-81
2023/06/12 10:56:59;;;;;;;4.82;1.80;;;30.80;98.80;;;;;;12505021;23;20200;-83
2023/06/12 11:02:21;;;;;;;3.72;2.08;;;30.70;97.90;;;;;;12594448;23;20238;-84
2023/06/12 11:13:03;;;;;;;2.58;1.42;;;30.50;96.00;;;;;;12506547;23;20180;-84
2023/06/12 11:18:25;;;;;;;5.07;1.70;;;30.60;99.90;;;;;;12485525;23;20247;-85
2023/06/12 11:23:48;;;;;;;7.95;1.83;;;30.80;97.00;;;;;;12526704;23;20170;-83
2023/06/12 11:29:16;;;;;;;1.77;1.58;;;30.70;95.50;;;;;;12505367;23;20195;-84
2023/06/12 11:34:40;;;;;;;2.58;1.40;;;30.00;95.60;;;;;;12481802;23;20509;-84
2023/06/12 11:40:10;;;;;;;3.97;2.00;;;29.90;95.50;;;;;;12481008;23;20252;-85
2023/06/12 11:45:31;;;;;;;6.07;1.75;;;29.60;95.80;;;;;;12481082;23;20462;-84
2023/06/12 11:50:53;;;;;;;5.30;2.10;;;29.50;95.40;;;;;;12584756;23;20398;-83
2023/06/12 11:56:14;;;;;;;7.22;1.88;;;29.40;94.70;;;;;;12480007;23;20211;-81
2023/06/12 12:01:41;;;;;;;4.25;2.00;;;29.60;94.10;;;;;;12480097;23;20248;-85
2023/06/12 12:07:03;;;;;;;6.07;2.25;;;29.60;95.60;;;;;;12504005;23;20267;-82
2023/06/12 12:12:24;;;;;;;5.60;2.10;;;29.90;94.70;;;;;;12503610;23;20276;-84
2023/06/12 12:17:46;;;;;;;5.85;1.80;;;30.00;94.70;;;;;;12506049;23;20470;-86
2023/06/12 12:23:12;;;;;;;4.07;1.70;;;29.80;94.70;;;;;;12484589;23;20184;-90
2023/06/12 12:28:34;;;;;;;3.63;1.60;;;29.70;94.70;;;;;;12485734;23;20218;-86
2023/06/12 12:33:55;;;;;;;3.38;1.77;;;29.30;93.20;;;;;;12554045;23;20266;-88
2023/06/12 12:39:17;;;;;;;1.67;1.48;;;29.30;93.40;;;;;;12547531;23;20171;-86
2023/06/12 12:44:39;;;;;;;130.00;73.93;;;28.90;93.10;;;;;;12547356;23;20175;-85
2023/06/12 12:50:01;;;;;;;8.23;4.35;;;28.80;92.80;;;;;;12551719;23;20218;-83
2023/06/12 12:55:25;;;;;;;2.67;1.70;;;29.10;94.70;;;;;;12575250;23;20199;-86
2023/06/12 13:00:46;;;;;;;7.50;2.08;;;28.90;94.20;;;;;;12596501;23;20240;-85
2023/06/12 13:06:12;;;;;;;9.15;1.92;;;28.70;94.00;;;;;;12530593;23;20191;-87
2023/06/12 13:11:33;;;;;;;2.83;1.85;;;28.20;94.40;;;;;;12566676;23;20164;-89
2023/06/12 13:16:55;;;;;;;4.07;1.80;;;28.00;93.90;;;;;;12543036;23;20207;-89
2023/06/12 13:22:16;;;;;;;6.13;1.80;;;28.10;93.80;;;;;;12545928;23;20180;-86
2023/06/12 13:27:38;;;;;;;3.03;1.60;;;28.20;94.20;;;;;;12562834;23;20172;-85
2023/06/12 13:32:59;;;;;;;4.13;1.60;;;28.30;94.50;;;;;;12562952;23;20557;-90
2023/06/12 13:38:21;;;;;;;6.97;1.58;;;28.10;94.00;;;;;;12523879;23;20195;-88
2023/06/12 13:43:42;;;;;;;2.55;1.55;;;28.10;93.80;;;;;;12543178;23;20183;-83
2023/06/12 13:49:05;;;;;;;4.80;2.33;;;28.00;93.20;;;;;;12542814;23;20221;-87
2023/06/12 13:54:26;;;;;;;9.00;1.60;;;28.00;93.80;;;;;;12563626;23;20206;-85
2023/06/12 13:59:47;;;;;;;3.63;1.63;;;27.50;93.00;;;;;;12543715;23;20171;-86
2023/06/12 14:05:09;;;;;;;2.47;1.70;;;27.30;92.50;;;;;;12564452;23;20167;-91
2023/06/12 14:10:32;;;;;;;3.50;1.85;;;27.30;93.10;;;;;;12549257;23;20155;-82
2023/06/12 14:15:54;;;;;;;3.13;1.48;;;26.60;92.50;;;;;;12550860;23;20428;-83
2023/06/12 14:21:16;;;;;;;6.10;1.25;;;26.70;92.90;;;;;;12545029;23;20194;-86
2023/06/12 14:26:37;;;;;;;4.10;1.60;;;26.40;93.60;;;;;;12541540;23;20205;-86
2023/06/12 14:31:59;;;;;;;5.30;2.45;;;26.30;92.40;;;;;;12562089;23;20560;-85
2023/06/12 14:37:20;;;;;;;6.40;1.85;;;26.30;92.40;;;;;;12541648;23;20321;-83
2023/06/12 14:42:42;;;;;;;2.53;1.60;;;26.10;91.20;;;;;;12541931;23;20179;-85
2023/06/12 14:48:03;;;;;;;6.93;3.15;;;25.80;91.60;;;;;;12543280;23;20183;-87
2023/06/12 14:53:25;;;;;;;6.00;2.40;;;25.70;92.10;;;;;;12542870;23;20206;-89
2023/06/12 14:58:48;;;;;;;7.10;2.38;;;25.80;92.30;;;;;;12563255;23;20174;-90
2023/06/12 15:04:10;;;;;;;4.53;2.30;;;25.80;91.30;;;;;;12540961;23;20406;-84
2023/06/12 15:09:31;;;;;;;7.95;2.08;;;25.80;91.90;;;;;;12550052;23;20408;-87
2023/06/12 15:14:52;;;;;;;8.90;2.70;;;25.60;92.10;;;;;;12568442;23;20192;-88
2023/06/12 15:20:14;;;;;;;3.97;1.95;;;25.30;92.00;;;;;;12547497;23;20178;-89
2023/06/12 15:25:37;;;;;;;12.20;2.78;;;25.00;92.80;;;;;;12546960;23;20536;-88
2023/06/12 15:30:58;;;;;;;5.18;2.00;;;24.90;91.80;;;;;;12544734;23;20195;-88
2023/06/12 15:36:19;;;;;;;2.30;1.60;;;24.80;92.50;;;;;;12524927;23;20206;-89
2023/06/12 15:41:41;;;;;;;1.27;1.17;;;24.80;92.10;;;;;;12527149;23;20234;-88
2023/06/12 15:47:03;;;;;;;5.07;1.58;;;24.70;93.50;;;;;;12550337;23;20175;-88
2023/06/12 15:52:24;;;;;;;3.25;2.10;;;24.60;93.30;;;;;;12655840;23;20175;-86
2023/06/12 15:57:46;;;;;;;2.25;1.85;;;24.60;92.80;;;;;;12569966;23;20207;-88
2023/06/12 16:03:08;;;;;;;4.75;1.73;;;24.40;92.10;;;;;;12549799;23;20460;-88
2023/06/12 16:08:29;;;;;;;3.38;1.90;;;24.40;93.90;;;;;;12550293;23;20321;-88
2023/06/12 16:13:51;;;;;;;2.25;1.90;;;24.20;93.30;;;;;;12550078;23;20372;-88
2023/06/12 16:19:12;;;;;;;3.92;2.00;;;24.10;93.30;;;;;;12529554;23;20297;-88
2023/06/12 16:24:34;;;;;;;6.60;2.30;;;23.90;93.10;;;;;;12549973;23;20176;-88
2023/06/12 16:29:55;;;;;;;4.60;2.00;;;23.80;95.60;;;;;;12549584;23;20255;-87
2023/06/12 16:35:19;;;;;;;7.47;2.80;;;23.70;94.20;;;;;;12549468;23;20191;-88
2023/06/12 16:40:41;;;;;;;4.40;2.60;;;23.30;78.10;;;;;;12530216;23;20283;-88
2023/06/12 16:46:02;;;;;;;6.85;2.70;;;23.30;92.80;;;;;;12553135;23;20245;-87
2023/06/12 16:51:23;;;;;;;8.35;2.33;;;23.10;94.30;;;;;;12548438;23;20461;-87
2023/06/12 16:56:45;;;;;;;5.20;1.77;;;23.00;93.20;;;;;;12553286;23;20218;-87
2023/06/12 17:02:07;;;;;;;9.32;2.25;;;22.90;94.20;;;;;;12550030;23;20171;-87
2023/06/12 17:07:29;;;;;;;4.65;1.83;;;22.80;94.00;;;;;;12549305;23;20171;-88
2023/06/12 17:12:50;;;;;;;3.70;2.60;;;22.50;94.50;;;;;;12549149;23;20174;-88
2023/06/12 17:18:11;;;;;;;2.00;1.60;;;22.40;95.30;;;;;;12548890;23;20372;-88
2023/06/12 17:23:33;;;;;;;3.08;1.83;;;22.40;95.50;;;;;;12569564;23;20170;-87
2023/06/12 17:28:54;;;;;;;8.52;3.08;;;22.40;95.50;;;;;;12549302;23;20195;-87
2023/06/12 17:34:17;;;;;;;6.75;2.70;;;22.30;95.60;;;;;;12569321;23;20191;-88
2023/06/12 17:39:39;;;;;;;4.13;1.90;;;22.30;96.60;;;;;;12548805;23;20225;-88
2023/06/12 17:45:00;;;;;;;5.95;2.08;;;22.20;96.30;;;;;;12528459;23;20221;-88
2023/06/12 17:50:22;;;;;;;3.88;2.00;;;22.10;96.60;;;;;;12549005;23;20178;-87
2023/06/12 17:55:43;;;;;;;3.72;2.10;;;21.90;99.90;;;;;;12548070;23;20199;-86
2023/06/12 18:01:05;;;;;;;4.20;2.15;;;21.80;98.30;;;;;;12548482;23;20171;-86
2023/06/12 18:06:26;;;;;;;9.18;2.30;;;21.40;98.10;;;;;;12548872;23;20168;-86
2023/06/12 18:11:47;;;;;;;4.72;2.22;;;21.20;97.60;;;;;;12549348;23;20172;-87
2023/06/12 18:17:09;;;;;;;3.47;2.30;;;20.90;99.00;;;;;;12548687;23;20206;-87
2023/06/12 18:22:30;;;;;;;7.70;2.20;;;20.90;99.40;;;;;;12654609;23;20175;-86
2023/06/12 18:27:52;;;;;;;2.67;2.10;;;20.70;99.90;;;;;;12552373;23;20507;-87
2023/06/12 18:33:15;;;;;;;12.55;2.60;;;20.60;99.90;;;;;;12528761;23;20206;-87
2023/06/12 18:38:36;;;;;;;4.75;2.47;;;20.30;99.90;;;;;;12573081;23;20190;-87
2023/06/12 18:43:58;;;;;;;11.45;3.20;;;20.10;99.90;;;;;;12553368;23;20175;-88
2023/06/12 18:49:21;;;;;;;2.83;2.45;;;19.90;99.90;;;;;;12550271;23;20179;-87
2023/06/12 18:54:43;;;;;;;4.72;2.72;;;19.80;99.90;;;;;;12554367;23;20191;-88
2023/06/12 19:00:05;;;;;;;6.40;3.30;;;19.70;99.90;;;;;;12563877;23;20171;-86
2023/06/12 19:05:27;;;;;;;4.65;2.33;;;19.60;99.90;;;;;;12583915;23;20234;-86
2023/06/12 19:10:48;;;;;;;3.05;2.25;;;19.50;99.90;;;;;;12553321;23;20203;-87
2023/06/12 19:16:10;;;;;;;5.05;2.00;;;19.50;99.90;;;;;;12568143;23;20191;-87
2023/06/12 19:21:31;;;;;;;8.98;2.53;;;19.40;1.00;;;;;;12528538;23;20221;-87
2023/06/12 19:26:53;;;;;;;3.90;1.90;;;;;;;;;;12652367;23;20179;-88
2023/06/12 19:32:16;;;;;;;2.97;2.03;;;;;;;;;;12567523;23;20210;-87
2023/06/12 19:37:38;;;;;;;4.50;2.17;;;;;;;;;;12567801;23;20199;-86
2023/06/12 19:42:59;;;;;;;6.68;2.05;;;;;;;;;;12567977;23;20485;-86
2023/06/12 19:48:21;;;;;;;4.35;1.90;;;;;;;;;;12547268;23;20171;-85
2023/06/12 19:53:43;;;;;;;5.68;1.77;;;;;;;;;;12566734;23;20416;-86
2023/06/12 19:59:05;;;;;;;2.13;1.55;;;;;;;;;;12652060;23;20167;-86
2023/06/12 20:04:26;;;;;;;6.88;1.83;;;18.60;99.90;;;;;;12547136;23;20365;-86
2023/06/12 20:09:48;;;;;;;6.25;1.75;;;;;;;;;;12527280;23;20234;-87
2023/06/12 20:15:09;;;;;;;6.90;2.13;;;18.50;99.60;;;;;;12546988;23;20250;-89
2023/06/12 20:20:34;;;;;;;2.97;1.92;;;18.40;99.90;;;;;;12567187;23;20231;-88
2023/06/12 20:25:56;;;;;;;7.00;2.28;;;18.40;99.90;;;;;;12547107;23;20174;-88
2023/06/12 20:31:17;;;;;;;3.42;1.80;;;18.40;99.90;;;;;;12549980;23;20195;-88
2023/06/12 20:36:39;;;;;;;5.93;2.25;;;18.30;99.90;;;;;;12530338;23;20224;-87
2023/06/12 20:42:00;;;;;;;2.42;1.80;;;18.30;99.90;;;;;;12569988;23;20230;-87
2023/06/12 20:47:21;;;;;;;2.63;1.83;;;18.20;99.90;;;;;;12549391;23;20195;-87
2023/06/12 20:52:43;;;;;;;4.43;1.88;;;18.20;99.90;;;;;;12569764;23;20206;-87
2023/06/12 20:58:04;;;;;;;1.70;1.60;;;18.10;99.90;;;;;;12675444;23;20199;-87
2023/06/12 21:03:27;;;;;;;3.70;1.90;;;18.10;99.90;;;;;;12529342;23;20171;-88
2023/06/12 21:08:58;;;;;;;3.63;1.90;;;18.10;99.90;;;;;;12569266;23;20226;-88
2023/06/12 21:14:20;;;;;;;2.95;2.30;;;18.10;99.90;;;;;;12655923;23;20577;-87
2023/06/12 21:19:41;;;;;;;4.93;2.03;;;18.00;99.90;;;;;;12529189;23;20202;-88
2023/06/12 21:25:02;;;;;;;5.75;1.95;;;18.10;99.90;;;;;;12549559;23;20364;-87
2023/06/12 21:30:26;;;;;;;4.88;2.42;;;18.10;99.90;;;;;;12549053;23;20215;-88
2023/06/12 21:35:47;;;;;;;5.15;2.15;;;18.10;99.90;;;;;;12548370;23;20199;-87
2023/06/12 21:47:44;;;;;;;5.45;2.42;;;18.00;99.90;;;;;;12551840;23;20446;-88
2023/06/12 21:53:07;;;;;;;4.63;2.50;;;17.90;99.90;;;;;;12532879;23;20180;-87
2023/06/12 21:58:30;;;;;;;5.43;2.33;;;17.90;99.90;;;;;;12529012;23;20199;-87
2023/06/12 22:03:52;;;;;;;9.77;3.47;;;17.90;99.90;;;;;;12548952;23;20178;-87
2023/06/12 22:09:14;;;;;;;10.50;3.25;;;17.80;99.90;;;;;;12552636;23;20182;-86
2023/06/12 22:14:36;;;;;;;7.28;2.85;;;17.70;99.90;;;;;;12568981;23;20236;-86
2023/06/12 22:19:57;;;;;;;6.80;3.30;;;17.80;99.90;;;;;;12552271;23;20236;-86
2023/06/12 22:25:21;;;;;;;6.28;3.17;;;17.80;99.90;;;;;;12528949;23;20171;-87
2023/06/12 22:30:43;;;;;;;5.68;3.40;;;17.80;99.90;;;;;;12530961;23;20222;-86
2023/06/12 22:36:12;;;;;;;5.45;3.45;;;17.80;99.90;;;;;;12675702;23;20361;-87
2023/06/12 22:41:33;;;;;;;6.95;3.60;;;17.70;99.90;;;;;;12547902;23;20171;-86
2023/06/12 22:46:55;;;;;;;8.32;4.07;;;17.80;99.90;;;;;;12527980;23;20294;-86
2023/06/12 22:52:16;;;;;;;9.73;4.68;;;17.70;99.90;;;;;;12547489;23;20182;-86
2023/06/12 22:57:37;;;;;;;12.57;4.75;;;17.70;99.90;;;;;;12527930;23;20206;-87
2023/06/12 23:02:59;;;;;;;10.70;5.10;;;17.70;99.90;;;;;;12673693;23;20270;-86
2023/06/12 23:08:27;;;;;;;9.32;4.95;;;17.60;99.90;;;;;;12568402;23;20168;-86
2023/06/12 23:13:50;;;;;;;8.40;5.03;;;17.60;99.90;;;;;;12548149;23;20508;-88
2023/06/12 23:19:12;;;;;;;12.60;6.18;;;17.50;99.90;;;;;;12547431;23;20512;-87
2023/06/12 23:24:34;;;;;;;12.07;6.00;;;17.30;99.90;;;;;;12547734;23;20179;-86
2023/06/12 23:29:56;;;;;;;14.52;5.78;;;17.30;99.90;;;;;;12547364;23;20217;-85
2023/06/12 23:35:18;;;;;;;12.80;5.70;;;17.20;99.90;;;;;;12547086;23;20225;-88
2023/06/12 23:40:39;;;;;;;17.70;6.30;;;17.20;99.90;;;;;;12547355;23;20184;-87
2023/06/12 23:46:01;;;;;;;10.63;5.35;;;17.20;99.90;;;;;;12551993;23;20205;-87
2023/06/12 23:51:36;;;;;;;8.13;5.45;;;17.10;1.00;;;;;;12554493;23;20469;-87
2023/06/12 23:56:58;;;;;;;9.00;4.25;;;16.80;99.90;;;;;;12547389;23;20202;-87
